Portada
METAR-TAF:

METAR-TAF

Aeroports :

São Pedro da Aldeia, Rio de Janeiro, Brasil

latitud: 22-49S, longitud: 042-06W, altitud: 10 m

Observació

L'informe es va fer fa 1 hora i 24 minuts, a les 15:00 UTC
Vent 8 kt del Est
Temperatura 22°C
Humitat 88%
Pressió 1020 hPa
Visibilitat: 9000 m
Escasses núvols a una alçada de 600 ft
Cel ennuvolat a una alçada de 1000 ft
Cel ennuvolat a una alçada de 4000 ft

METAR: SBES 201500Z 08008KT 9000 FEW006 BKN010 BKN040 22/20 Q1020

Hora: 13:24 (16:24 UTC)


TAF: manca

Observacions i pronòstics meteorològics de més de 4000 aeroports (METAR i TAF).

Les estacions disponibles són els punts grocs i vermells al mapa.

Posi el ratolí al punt desitjat per veure el nom de l'estació.

Feu clic per veure les observacions i els pronòstics meteorològics.

Per canviar el mapa: feu clic els botons verds amb una creu de color negre per apropar; al botó verd amb un guió per allunyar la imatge; o en les fletxes verdes per a mapes adjacents.


METAR-TAF: